sensor_id;sensor_type;location;lat;lon;timestamp;pressure;altitude;pressure_sealevel;temperature;humidity
65997;BME280;52765;52.258;21.052;2023-06-10T00:01:13;100603.91;;;20.66;60.07
65997;BME280;52765;52.258;21.052;2023-06-10T00:03:38;100603.09;;;20.52;59.55
65997;BME280;52765;52.258;21.052;2023-06-10T00:06:04;100610.91;;;20.48;59.26
65997;BME280;52765;52.258;21.052;2023-06-10T00:08:30;100605.19;;;20.43;57.55
65997;BME280;52765;52.258;21.052;2023-06-10T00:10:56;100601.03;;;20.41;57.13
65997;BME280;52765;52.258;21.052;2023-06-10T00:13:22;100602.94;;;20.40;56.61
65997;BME280;52765;52.258;21.052;2023-06-10T00:15:47;100597.03;;;20.37;55.99
65997;BME280;52765;52.258;21.052;2023-06-10T00:18:13;100597.03;;;20.37;55.05
65997;BME280;52765;52.258;21.052;2023-06-10T00:20:39;100597.91;;;20.30;54.51
65997;BME280;52765;52.258;21.052;2023-06-10T00:23:05;100601.69;;;20.23;54.09
65997;BME280;52765;52.258;21.052;2023-06-10T00:25:33;100604.25;;;20.18;54.35
65997;BME280;52765;52.258;21.052;2023-06-10T00:27:59;100592.06;;;20.13;54.23
65997;BME280;52765;52.258;21.052;2023-06-10T00:30:24;100600.50;;;20.05;54.34
65997;BME280;52765;52.258;21.052;2023-06-10T00:32:50;100603.44;;;19.97;53.88
65997;BME280;52765;52.258;21.052;2023-06-10T00:35:16;100596.50;;;19.88;53.03
65997;BME280;52765;52.258;21.052;2023-06-10T00:37:41;100598.63;;;19.86;52.68
65997;BME280;52765;52.258;21.052;2023-06-10T00:40:07;100598.19;;;19.89;52.05
65997;BME280;52765;52.258;21.052;2023-06-10T00:42:36;100595.69;;;19.81;51.58
65997;BME280;52765;52.258;21.052;2023-06-10T00:45:01;100593.16;;;19.79;51.10
65997;BME280;52765;52.258;21.052;2023-06-10T00:47:27;100589.34;;;19.67;50.85
65997;BME280;52765;52.258;21.052;2023-06-10T00:49:54;100587.47;;;19.74;50.49
65997;BME280;52765;52.258;21.052;2023-06-10T00:52:21;100588.72;;;19.71;49.95
65997;BME280;52765;52.258;21.052;2023-06-10T00:54:47;100595.66;;;19.60;49.60
65997;BME280;52765;52.258;21.052;2023-06-10T00:57:13;100604.50;;;19.56;49.61
65997;BME280;52765;52.258;21.052;2023-06-10T00:59:40;100600.50;;;19.52;49.11
65997;BME280;52765;52.258;21.052;2023-06-10T01:02:06;100596.91;;;19.45;48.99
65997;BME280;52765;52.258;21.052;2023-06-10T01:04:33;100600.06;;;19.41;48.98
65997;BME280;52765;52.258;21.052;2023-06-10T01:07:07;100603.66;;;19.35;49.05
65997;BME280;52765;52.258;21.052;2023-06-10T01:15:15;100591.44;;;19.18;48.90
65997;BME280;52765;52.258;21.052;2023-06-10T01:17:58;100599.22;;;19.21;48.77
65997;BME280;52765;52.258;21.052;2023-06-10T01:20:25;100593.53;;;19.16;48.51
65997;BME280;52765;52.258;21.052;2023-06-10T01:22:54;100603.59;;;19.09;48.69
65997;BME280;52765;52.258;21.052;2023-06-10T01:25:21;100612.00;;;19.07;48.63
65997;BME280;52765;52.258;21.052;2023-06-10T01:33:28;100607.53;;;18.93;48.69
65997;BME280;52765;52.258;21.052;2023-06-10T01:35:56;100615.31;;;18.89;48.85
65997;BME280;52765;52.258;21.052;2023-06-10T01:38:24;100610.47;;;18.84;48.90
65997;BME280;52765;52.258;21.052;2023-06-10T01:40:53;100617.75;;;18.77;49.20
65997;BME280;52765;52.258;21.052;2023-06-10T01:43:20;100622.59;;;18.75;49.13
65997;BME280;52765;52.258;21.052;2023-06-10T01:45:46;100623.19;;;18.71;49.20
65997;BME280;52765;52.258;21.052;2023-06-10T01:48:12;100631.38;;;18.71;49.29
65997;BME280;52765;52.258;21.052;2023-06-10T01:50:38;100628.22;;;18.67;49.37
65997;BME280;52765;52.258;21.052;2023-06-10T01:53:04;100628.22;;;18.67;49.19
65997;BME280;52765;52.258;21.052;2023-06-10T01:55:30;100632.38;;;18.63;49.66
65997;BME280;52765;52.258;21.052;2023-06-10T01:57:56;100636.56;;;18.59;49.59
65997;BME280;52765;52.258;21.052;2023-06-10T02:00:22;100634.88;;;18.58;49.79
65997;BME280;52765;52.258;21.052;2023-06-10T02:02:47;100636.53;;;18.52;50.00
65997;BME280;52765;52.258;21.052;2023-06-10T02:05:13;100644.72;;;18.52;50.06
65997;BME280;52765;52.258;21.052;2023-06-10T02:07:38;100637.53;;;18.44;50.19
65997;BME280;52765;52.258;21.052;2023-06-10T02:10:05;100635.88;;;18.50;50.15
65997;BME280;52765;52.258;21.052;2023-06-10T02:12:30;100648.66;;;18.43;50.60
65997;BME280;52765;52.258;21.052;2023-06-10T02:14:56;100653.88;;;18.38;50.83
65997;BME280;52765;52.258;21.052;2023-06-10T02:17:21;100651.13;;;18.38;50.92
65997;BME280;52765;52.258;21.052;2023-06-10T02:19:48;100644.19;;;18.35;50.97
65997;BME280;52765;52.258;21.052;2023-06-10T02:22:20;100654.25;;;18.35;51.23
65997;BME280;52765;52.258;21.052;2023-06-10T02:24:45;100648.78;;;18.28;51.53
65997;BME280;52765;52.258;21.052;2023-06-10T02:27:11;100654.19;;;18.21;51.87
65997;BME280;52765;52.258;21.052;2023-06-10T02:29:36;100657.50;;;18.17;52.04
65997;BME280;52765;52.258;21.052;2023-06-10T02:32:03;100646.78;;;18.15;52.52
65997;BME280;52765;52.258;21.052;2023-06-10T02:34:29;100646.75;;;18.08;52.66
65997;BME280;52765;52.258;21.052;2023-06-10T02:36:54;100650.53;;;18.07;52.74
65997;BME280;52765;52.258;21.052;2023-06-10T02:39:22;100659.09;;;18.04;52.88
65997;BME280;52765;52.258;21.052;2023-06-10T02:41:47;100662.66;;;18.05;53.13
65997;BME280;52765;52.258;21.052;2023-06-10T02:44:13;100662.63;;;17.98;53.36
65997;BME280;52765;52.258;21.052;2023-06-10T02:46:38;100663.00;;;17.95;53.65
65997;BME280;52765;52.258;21.052;2023-06-10T02:49:07;100665.72;;;17.95;53.85
65997;BME280;52765;52.258;21.052;2023-06-10T02:51:32;100664.91;;;17.94;54.05
65997;BME280;52765;52.258;21.052;2023-06-10T02:54:01;100669.31;;;17.96;54.32
65997;BME280;52765;52.258;21.052;2023-06-10T02:56:26;100671.81;;;17.90;54.52
65997;BME280;52765;52.258;21.052;2023-06-10T02:58:52;100670.31;;;17.88;54.64
65997;BME280;52765;52.258;21.052;2023-06-10T03:01:20;100671.13;;;17.88;54.77
65997;BME280;52765;52.258;21.052;2023-06-10T03:03:52;100673.47;;;17.91;54.75
65997;BME280;52765;52.258;21.052;2023-06-10T03:06:21;100680.66;;;17.99;54.64
65997;BME280;52765;52.258;21.052;2023-06-10T03:08:49;100681.75;;;18.05;54.49
65997;BME280;52765;52.258;21.052;2023-06-10T03:11:15;100684.91;;;18.08;54.57
65997;BME280;52765;52.258;21.052;2023-06-10T03:13:41;100677.56;;;18.02;54.89
65997;BME280;52765;52.258;21.052;2023-06-10T03:16:06;100683.19;;;18.01;54.92
65997;BME280;52765;52.258;21.052;2023-06-10T03:18:33;100675.84;;;18.01;55.11
65997;BME280;52765;52.258;21.052;2023-06-10T03:20:58;100678.38;;;18.03;55.21
65997;BME280;52765;52.258;21.052;2023-06-10T03:23:24;100684.91;;;18.08;54.96
65997;BME280;52765;52.258;21.052;2023-06-10T03:25:49;100684.09;;;18.08;55.08
65997;BME280;52765;52.258;21.052;2023-06-10T03:28:15;100677.41;;;18.10;55.33
65997;BME280;52765;52.258;21.052;2023-06-10T03:30:40;100689.97;;;18.11;55.23
65997;BME280;52765;52.258;21.052;2023-06-10T03:33:06;100687.25;;;18.11;55.20
65997;BME280;52765;52.258;21.052;2023-06-10T03:35:31;100695.47;;;18.18;55.16
65997;BME280;52765;52.258;21.052;2023-06-10T03:37:58;100697.81;;;18.21;55.02
65997;BME280;52765;52.258;21.052;2023-06-10T03:40:24;100697.03;;;18.27;54.91
65997;BME280;52765;52.258;21.052;2023-06-10T03:42:50;100694.53;;;18.33;54.92
65997;BME280;52765;52.258;21.052;2023-06-10T03:45:15;100695.63;;;18.38;55.02
65997;BME280;52765;52.258;21.052;2023-06-10T03:47:41;100702.75;;;18.39;54.84
65997;BME280;52765;52.258;21.052;2023-06-10T03:50:07;100703.19;;;18.43;54.90
65997;BME280;52765;52.258;21.052;2023-06-10T03:52:34;100705.06;;;18.36;55.09
65997;BME280;52765;52.258;21.052;2023-06-10T03:54:59;100713.03;;;18.37;54.78
65997;BME280;52765;52.258;21.052;2023-06-10T03:57:25;100711.97;;;18.38;55.27
65997;BME280;52765;52.258;21.052;2023-06-10T03:59:51;100707.81;;;18.42;55.19
65997;BME280;52765;52.258;21.052;2023-06-10T04:02:16;100715.19;;;18.42;55.08
65997;BME280;52765;52.258;21.052;2023-06-10T04:04:41;100710.56;;;18.42;55.05
65997;BME280;52765;52.258;21.052;2023-06-10T04:07:08;100707.22;;;18.47;55.20
65997;BME280;52765;52.258;21.052;2023-06-10T04:09:34;100711.88;;;18.53;55.34
65997;BME280;52765;52.258;21.052;2023-06-10T04:12:00;100709.19;;;18.60;55.05
65997;BME280;52765;52.258;21.052;2023-06-10T04:14:26;100713.84;;;18.66;54.94
65997;BME280;52765;52.258;21.052;2023-06-10T04:16:52;100713.25;;;18.71;54.76
65997;BME280;52765;52.258;21.052;2023-06-10T04:19:17;100710.94;;;18.74;54.72
65997;BME280;52765;52.258;21.052;2023-06-10T04:21:43;100707.47;;;18.87;54.38
65997;BME280;52765;52.258;21.052;2023-06-10T04:24:08;100706.03;;;18.98;54.44
65997;BME280;52765;52.258;21.052;2023-06-10T04:26:35;100714.84;;;19.00;54.26
65997;BME280;52765;52.258;21.052;2023-06-10T04:29:02;100706.47;;;19.01;54.29
65997;BME280;52765;52.258;21.052;2023-06-10T04:31:27;100716.94;;;18.91;54.43
65997;BME280;52765;52.258;21.052;2023-06-10T04:33:53;100711.28;;;18.93;54.67
65997;BME280;52765;52.258;21.052;2023-06-10T04:36:18;100712.34;;;18.98;54.76
65997;BME280;52765;52.258;21.052;2023-06-10T04:38:44;100716.34;;;19.02;54.61
65997;BME280;52765;52.258;21.052;2023-06-10T04:41:10;100717.84;;;19.12;54.52
65997;BME280;52765;52.258;21.052;2023-06-10T04:43:35;100717.25;;;19.16;54.34
65997;BME280;52765;52.258;21.052;2023-06-10T04:46:01;100717.88;;;19.25;54.13
65997;BME280;52765;52.258;21.052;2023-06-10T04:48:26;100725.25;;;19.25;54.35
65997;BME280;52765;52.258;21.052;2023-06-10T04:50:52;100722.91;;;19.15;54.33
65997;BME280;52765;52.258;21.052;2023-06-10T04:53:17;100722.91;;;19.15;54.67
65997;BME280;52765;52.258;21.052;2023-06-10T04:55:43;100725.84;;;19.20;54.46
65997;BME280;52765;52.258;21.052;2023-06-10T04:58:09;100730.06;;;19.16;54.63
65997;BME280;52765;52.258;21.052;2023-06-10T05:00:34;100730.50;;;19.19;54.40
65997;BME280;52765;52.258;21.052;2023-06-10T05:03:00;100737.47;;;19.29;54.31
65997;BME280;52765;52.258;21.052;2023-06-10T05:05:26;100731.38;;;19.33;54.20
65997;BME280;52765;52.258;21.052;2023-06-10T05:07:51;100737.06;;;19.32;54.19
65997;BME280;52765;52.258;21.052;2023-06-10T05:10:17;100733.25;;;19.33;54.49
65997;BME280;52765;52.258;21.052;2023-06-10T05:12:42;100739.34;;;19.28;54.26
65997;BME280;52765;52.258;21.052;2023-06-10T05:15:08;100737.00;;;19.25;54.84
65997;BME280;52765;52.258;21.052;2023-06-10T05:17:34;100732.84;;;19.29;54.70
65997;BME280;52765;52.258;21.052;2023-06-10T05:20:03;100736.41;;;19.36;54.90
65997;BME280;52765;52.258;21.052;2023-06-10T05:22:28;100733.91;;;19.41;54.63
65997;BME280;52765;52.258;21.052;2023-06-10T05:24:54;100735.19;;;19.39;54.84
65997;BME280;52765;52.258;21.052;2023-06-10T05:27:19;100733.91;;;19.41;54.59
65997;BME280;52765;52.258;21.052;2023-06-10T05:29:46;100736.03;;;19.46;54.73
65997;BME280;52765;52.258;21.052;2023-06-10T05:32:12;100737.53;;;19.49;54.76
65997;BME280;52765;52.258;21.052;2023-06-10T05:34:37;100734.81;;;19.55;54.58
65997;BME280;52765;52.258;21.052;2023-06-10T05:37:03;100734.16;;;19.60;54.59
65997;BME280;52765;52.258;21.052;2023-06-10T05:39:29;100729.34;;;19.62;54.60
65997;BME280;52765;52.258;21.052;2023-06-10T05:41:55;100735.88;;;19.68;54.49
65997;BME280;52765;52.258;21.052;2023-06-10T05:44:20;100735.06;;;19.74;54.56
65997;BME280;52765;52.258;21.052;2023-06-10T05:46:46;100738.44;;;19.76;54.33
65997;BME280;52765;52.258;21.052;2023-06-10T05:49:11;100738.03;;;19.79;54.38
65997;BME280;52765;52.258;21.052;2023-06-10T05:51:37;100737.63;;;19.82;54.11
65997;BME280;52765;52.258;21.052;2023-06-10T05:54:02;100737.00;;;19.87;53.96
65997;BME280;52765;52.258;21.052;2023-06-10T05:56:28;100734.91;;;20.02;53.87
65997;BME280;52765;52.258;21.052;2023-06-10T05:58:54;100741.63;;;20.06;53.58
65997;BME280;52765;52.258;21.052;2023-06-10T06:01:19;100745.63;;;20.10;53.50
65997;BME280;52765;52.258;21.052;2023-06-10T06:03:45;100748.56;;;20.15;53.76
65997;BME280;52765;52.258;21.052;2023-06-10T06:06:11;100742.47;;;20.27;53.12
65997;BME280;52765;52.258;21.052;2023-06-10T06:08:36;100743.72;;;20.38;52.59
65997;BME280;52765;52.258;21.052;2023-06-10T06:11:02;100746.66;;;20.36;52.73
65997;BME280;52765;52.258;21.052;2023-06-10T06:13:27;100744.75;;;20.43;52.48
65997;BME280;52765;52.258;21.052;2023-06-10T06:15:54;100752.09;;;20.56;51.85
65997;BME280;52765;52.258;21.052;2023-06-10T06:18:19;100743.06;;;20.69;51.90
65997;BME280;52765;52.258;21.052;2023-06-10T06:20:45;100739.88;;;20.85;51.52
65997;BME280;52765;52.258;21.052;2023-06-10T06:23:10;100731.00;;;20.97;51.08
65997;BME280;52765;52.258;21.052;2023-06-10T06:25:36;100742.31;;;21.07;50.89
65997;BME280;52765;52.258;21.052;2023-06-10T06:28:06;100740.25;;;20.96;51.00
65997;BME280;52765;52.258;21.052;2023-06-10T06:30:31;100747.59;;;21.02;50.66
65997;BME280;52765;52.258;21.052;2023-06-10T06:32:57;100747.59;;;21.02;50.80
65997;BME280;52765;52.258;21.052;2023-06-10T06:35:22;100747.75;;;21.20;51.03
65997;BME280;52765;52.258;21.052;2023-06-10T06:37:48;100748.97;;;21.24;50.39
65997;BME280;52765;52.258;21.052;2023-06-10T06:40:13;100747.13;;;21.18;50.66
65997;BME280;52765;52.258;21.052;2023-06-10T06:42:39;100745.69;;;21.02;51.19
65997;BME280;52765;52.258;21.052;2023-06-10T06:45:05;100757.06;;;21.06;50.93
65997;BME280;52765;52.258;21.052;2023-06-10T06:47:33;100754.69;;;21.16;50.94
65997;BME280;52765;52.258;21.052;2023-06-10T06:49:59;100746.63;;;21.28;50.63
65997;BME280;52765;52.258;21.052;2023-06-10T06:52:24;100749.13;;;21.36;50.41
65997;BME280;52765;52.258;21.052;2023-06-10T06:54:50;100748.06;;;21.37;50.64
65997;BME280;52765;52.258;21.052;2023-06-10T06:57:16;100761.16;;;21.35;50.78
65997;BME280;52765;52.258;21.052;2023-06-10T06:59:41;100753.94;;;21.41;50.74
65997;BME280;52765;52.258;21.052;2023-06-10T07:02:07;100763.66;;;21.50;50.88
65997;BME280;52765;52.258;21.052;2023-06-10T07:04:32;100756.03;;;21.52;50.62
65997;BME280;52765;52.258;21.052;2023-06-10T07:06:58;100758.56;;;21.54;50.29
65997;BME280;52765;52.258;21.052;2023-06-10T07:09:23;100752.44;;;21.58;50.22
65997;BME280;52765;52.258;21.052;2023-06-10T07:11:51;100758.91;;;21.64;50.37
65997;BME280;52765;52.258;21.052;2023-06-10T07:14:17;100754.63;;;21.75;50.18
65997;BME280;52765;52.258;21.052;2023-06-10T07:16:42;100761.09;;;21.87;49.79
65997;BME280;52765;52.258;21.052;2023-06-10T07:19:10;100767.53;;;21.99;49.22
65997;BME280;52765;52.258;21.052;2023-06-10T07:21:35;100767.75;;;21.98;49.27
65997;BME280;52765;52.258;21.052;2023-06-10T07:24:01;100764.41;;;21.96;49.12
65997;BME280;52765;52.258;21.052;2023-06-10T07:26:27;100765.00;;;21.98;49.05
65997;BME280;52765;52.258;21.052;2023-06-10T07:28:53;100758.97;;;22.14;49.33
65997;BME280;52765;52.258;21.052;2023-06-10T07:31:18;100765.19;;;22.35;48.71
65997;BME280;52765;52.258;21.052;2023-06-10T07:33:46;100766.63;;;22.38;48.63
65997;BME280;52765;52.258;21.052;2023-06-10T07:36:11;100765.13;;;22.42;48.25
65997;BME280;52765;52.258;21.052;2023-06-10T07:38:40;100765.06;;;22.48;47.92
65997;BME280;52765;52.258;21.052;2023-06-10T07:41:08;100764.84;;;22.50;47.81
65997;BME280;52765;52.258;21.052;2023-06-10T07:43:33;100769.47;;;22.49;48.17
65997;BME280;52765;52.258;21.052;2023-06-10T07:45:59;100771.31;;;22.56;48.19
65997;BME280;52765;52.258;21.052;2023-06-10T07:48:25;100774.53;;;22.71;47.78
65997;BME280;52765;52.258;21.052;2023-06-10T07:50:51;100780.75;;;22.85;47.55
65997;BME280;52765;52.258;21.052;2023-06-10T07:53:17;100777.84;;;22.98;47.04
65997;BME280;52765;52.258;21.052;2023-06-10T07:55:42;100776.00;;;22.92;47.09
65997;BME280;52765;52.258;21.052;2023-06-10T07:58:08;100779.28;;;22.82;47.23
65997;BME280;52765;52.258;21.052;2023-06-10T08:00:33;100782.03;;;22.82;47.25
65997;BME280;52765;52.258;21.052;2023-06-10T08:02:59;100796.28;;;22.91;46.99
65997;BME280;52765;52.258;21.052;2023-06-10T08:05:24;100786.19;;;22.91;46.63
65997;BME280;52765;52.258;21.052;2023-06-10T08:07:51;100785.38;;;23.03;46.87
65997;BME280;52765;52.258;21.052;2023-06-10T08:10:16;100789.59;;;23.05;46.38
65997;BME280;52765;52.258;21.052;2023-06-10T08:12:42;100785.97;;;23.12;46.10
65997;BME280;52765;52.258;21.052;2023-06-10T08:15:09;100782.22;;;23.24;46.27
65997;BME280;52765;52.258;21.052;2023-06-10T08:17:35;100778.38;;;23.44;45.35
65997;BME280;52765;52.258;21.052;2023-06-10T08:20:01;100780.63;;;23.65;44.53
65997;BME280;52765;52.258;21.052;2023-06-10T08:22:27;100780.00;;;23.63;45.18
65997;BME280;52765;52.258;21.052;2023-06-10T08:24:57;100780.72;;;23.59;45.18
65997;BME280;52765;52.258;21.052;2023-06-10T08:27:23;100778.47;;;23.68;45.33
65997;BME280;52765;52.258;21.052;2023-06-10T08:29:48;100789.09;;;23.64;45.00
65997;BME280;52765;52.258;21.052;2023-06-10T08:32:17;100786.03;;;23.72;44.66
65997;BME280;52765;52.258;21.052;2023-06-10T08:34:42;100786.47;;;23.69;44.25
65997;BME280;52765;52.258;21.052;2023-06-10T08:37:10;100786.47;;;23.69;44.30
65997;BME280;52765;52.258;21.052;2023-06-10T08:39:35;100790.34;;;23.50;44.68
65997;BME280;52765;52.258;21.052;2023-06-10T08:44:53;100786.38;;;23.45;44.11
65997;BME280;52765;52.258;21.052;2023-06-10T08:47:24;100785.56;;;23.45;43.76
65997;BME280;52765;52.258;21.052;2023-06-10T08:49:51;100787.91;;;23.60;43.78
65997;BME280;52765;52.258;21.052;2023-06-10T08:52:20;100787.94;;;23.72;43.88
65997;BME280;52765;52.258;21.052;2023-06-10T08:54:52;100794.13;;;23.67;44.07
65997;BME280;52765;52.258;21.052;2023-06-10T08:57:20;100791.66;;;23.77;44.14
65997;BME280;52765;52.258;21.052;2023-06-10T08:59:47;100788.84;;;23.84;43.68
65997;BME280;52765;52.258;21.052;2023-06-10T09:02:14;100798.06;;;23.90;43.58
65997;BME280;52765;52.258;21.052;2023-06-10T09:04:42;100794.00;;;23.92;43.80
65997;BME280;52765;52.258;21.052;2023-06-10T09:07:09;100803.81;;;23.88;43.15
65997;BME280;52765;52.258;21.052;2023-06-10T09:09:36;100797.22;;;23.89;43.08
65997;BME280;52765;52.258;21.052;2023-06-10T09:12:03;100792.66;;;23.83;43.46
65997;BME280;52765;52.258;21.052;2023-06-10T09:14:28;100805.78;;;23.81;43.29
65997;BME280;52765;52.258;21.052;2023-06-10T09:16:54;100795.56;;;23.70;43.48
65997;BME280;52765;52.258;21.052;2023-06-10T09:19:25;100802.63;;;23.65;42.92
65997;BME280;52765;52.258;21.052;2023-06-10T09:21:51;100807.28;;;23.65;43.27
65997;BME280;52765;52.258;21.052;2023-06-10T09:24:17;100803.41;;;23.54;43.15
65997;BME280;52765;52.258;21.052;2023-06-10T09:26:43;100805.00;;;23.62;43.12
65997;BME280;52765;52.258;21.052;2023-06-10T09:29:11;100804.66;;;23.70;42.57
65997;BME280;52765;52.258;21.052;2023-06-10T09:31:38;100797.75;;;23.79;42.29
65997;BME280;52765;52.258;21.052;2023-06-10T09:34:14;100799.00;;;23.83;41.11
65997;BME280;52765;52.258;21.052;2023-06-10T09:36:42;100810.97;;;23.89;41.34
65997;BME280;52765;52.258;21.052;2023-06-10T09:39:16;100817.50;;;24.07;41.50
65997;BME280;52765;52.258;21.052;2023-06-10T09:41:42;100814.75;;;24.07;40.92
65997;BME280;52765;52.258;21.052;2023-06-10T09:44:17;100813.78;;;24.13;40.54
65997;BME280;52765;52.258;21.052;2023-06-10T09:46:45;100814.34;;;24.33;40.37
65997;BME280;52765;52.258;21.052;2023-06-10T09:49:11;100805.56;;;24.25;39.09
65997;BME280;52765;52.258;21.052;2023-06-10T09:51:36;100806.19;;;24.38;39.45
65997;BME280;52765;52.258;21.052;2023-06-10T09:54:03;100818.03;;;24.51;38.48
65997;BME280;52765;52.258;21.052;2023-06-10T09:56:35;100817.00;;;24.64;36.58
65997;BME280;52765;52.258;21.052;2023-06-10T09:59:02;100799.78;;;24.68;35.85
65997;BME280;52765;52.258;21.052;2023-06-10T10:01:30;100809.34;;;24.66;35.30
65997;BME280;52765;52.258;21.052;2023-06-10T10:03:55;100812.94;;;24.66;34.88
65997;BME280;52765;52.258;21.052;2023-06-10T10:06:21;100802.28;;;24.70;33.99
65997;BME280;52765;52.258;21.052;2023-06-10T10:08:49;100809.09;;;24.67;35.25
65997;BME280;52765;52.258;21.052;2023-06-10T10:11:17;100804.63;;;24.54;36.35
65997;BME280;52765;52.258;21.052;2023-06-10T10:13:45;100803.72;;;24.72;35.98
65997;BME280;52765;52.258;21.052;2023-06-10T10:16:40;100797.13;;;24.85;34.67
65997;BME280;52765;52.258;21.052;2023-06-10T10:19:28;100797.22;;;25.02;34.33
65997;BME280;52765;52.258;21.052;2023-06-10T10:22:04;100788.00;;;24.97;33.59
65997;BME280;52765;52.258;21.052;2023-06-10T10:24:35;100794.47;;;25.02;33.19
65997;BME280;52765;52.258;21.052;2023-06-10T10:27:01;100786.66;;;25.11;32.39
65997;BME280;52765;52.258;21.052;2023-06-10T10:29:35;100796.75;;;24.93;30.22
65997;BME280;52765;52.258;21.052;2023-06-10T10:32:02;100788.81;;;25.09;31.04
65997;BME280;52765;52.258;21.052;2023-06-10T10:37:13;100785.78;;;25.34;31.85
65997;BME280;52765;52.258;21.052;2023-06-10T10:39:38;100783.41;;;25.66;32.26
65997;BME280;52765;52.258;21.052;2023-06-10T10:42:04;100785.09;;;25.96;32.06
65997;BME280;52765;52.258;21.052;2023-06-10T10:44:37;100784.44;;;26.23;31.80
65997;BME280;52765;52.258;21.052;2023-06-10T10:47:03;100794.13;;;26.43;31.73
65997;BME280;52765;52.258;21.052;2023-06-10T10:49:32;100781.88;;;26.55;31.15
65997;BME280;52765;52.258;21.052;2023-06-10T10:52:01;100777.72;;;26.70;31.35
65997;BME280;52765;52.258;21.052;2023-06-10T10:54:35;100785.41;;;26.85;31.27
65997;BME280;52765;52.258;21.052;2023-06-10T10:57:20;100780.69;;;26.85;31.29
65997;BME280;52765;52.258;21.052;2023-06-10T11:04:47;100780.00;;;27.17;31.47
65997;BME280;52765;52.258;21.052;2023-06-10T11:07:22;100785.28;;;27.19;31.35
65997;BME280;52765;52.258;21.052;2023-06-10T11:10:07;100771.59;;;27.29;32.00
65997;BME280;52765;52.258;21.052;2023-06-10T11:15:13;100771.31;;;27.53;31.19
65997;BME280;52765;52.258;21.052;2023-06-10T11:18:15;100773.16;;;27.42;30.44
65997;BME280;52765;52.258;21.052;2023-06-10T11:23:30;100764.91;;;27.74;29.40
65997;BME280;52765;52.258;21.052;2023-06-10T11:31:42;100764.59;;;27.98;28.77
65997;BME280;52765;52.258;21.052;2023-06-10T11:34:09;100761.09;;;28.08;27.58
65997;BME280;52765;52.258;21.052;2023-06-10T11:36:41;100755.78;;;28.33;26.79
65997;BME280;52765;52.258;21.052;2023-06-10T11:39:09;100761.19;;;28.55;26.39
65997;BME280;52765;52.258;21.052;2023-06-10T11:41:38;100748.03;;;28.73;26.36
65997;BME280;52765;52.258;21.052;2023-06-10T11:44:13;100755.84;;;28.86;26.76
65997;BME280;52765;52.258;21.052;2023-06-10T11:46:40;100759.69;;;28.80;26.37
65997;BME280;52765;52.258;21.052;2023-06-10T11:49:07;100752.13;;;29.18;27.33
65997;BME280;52765;52.258;21.052;2023-06-10T11:51:38;100752.50;;;29.52;27.03
65997;BME280;52765;52.258;21.052;2023-06-10T11:54:05;100738.34;;;29.54;27.37
65997;BME280;52765;52.258;21.052;2023-06-10T11:56:32;100762.25;;;29.60;27.35
65997;BME280;52765;52.258;21.052;2023-06-10T11:58:59;100759.19;;;29.51;26.92
65997;BME280;52765;52.258;21.052;2023-06-10T12:01:30;100752.22;;;29.49;27.72
65997;BME280;52765;52.258;21.052;2023-06-10T12:04:14;100747.47;;;29.39;27.66
65997;BME280;52765;52.258;21.052;2023-06-10T12:06:51;100743.63;;;29.50;27.80
65997;BME280;52765;52.258;21.052;2023-06-10T12:09:26;100738.72;;;29.88;29.35
65997;BME280;52765;52.258;21.052;2023-06-10T12:11:58;100740.66;;;29.93;30.64
65997;BME280;52765;52.258;21.052;2023-06-10T12:14:58;100734.53;;;29.86;31.38
65997;BME280;52765;52.258;21.052;2023-06-10T12:19:55;100745.16;;;28.20;32.53
65997;BME280;52765;52.258;21.052;2023-06-10T12:22:20;100744.59;;;27.91;33.25
65997;BME280;52765;52.258;21.052;2023-06-10T12:24:58;100739.59;;;28.57;32.92
65997;BME280;52765;52.258;21.052;2023-06-10T12:27:27;100743.94;;;28.96;32.04
65997;BME280;52765;52.258;21.052;2023-06-10T12:29:56;100730.28;;;29.42;31.84
65997;BME280;52765;52.258;21.052;2023-06-10T12:32:42;100740.81;;;29.40;31.97
65997;BME280;52765;52.258;21.052;2023-06-10T12:35:08;100748.97;;;28.51;33.43
65997;BME280;52765;52.258;21.052;2023-06-10T12:37:35;100742.44;;;27.98;33.92
65997;BME280;52765;52.258;21.052;2023-06-10T12:40:04;100750.91;;;27.59;34.08
65997;BME280;52765;52.258;21.052;2023-06-10T12:42:36;100744.81;;;27.57;34.20
65997;BME280;52765;52.258;21.052;2023-06-10T12:45:03;100722.66;;;28.11;33.65
65997;BME280;52765;52.258;21.052;2023-06-10T12:47:33;100731.66;;;28.71;32.87
65997;BME280;52765;52.258;21.052;2023-06-10T12:50:00;100724.19;;;28.77;33.75
65997;BME280;52765;52.258;21.052;2023-06-10T12:52:26;100730.44;;;28.19;34.43
65997;BME280;52765;52.258;21.052;2023-06-10T12:54:53;100725.91;;;28.03;33.25
65997;BME280;52765;52.258;21.052;2023-06-10T12:57:19;100718.66;;;28.82;33.01
65997;BME280;52765;52.258;21.052;2023-06-10T12:59:44;100714.97;;;29.29;32.95
65997;BME280;52765;52.258;21.052;2023-06-10T13:02:16;100726.44;;;28.80;32.72
65997;BME280;52765;52.258;21.052;2023-06-10T13:04:43;100722.25;;;28.35;33.36
65997;BME280;52765;52.258;21.052;2023-06-10T13:07:09;100716.84;;;28.55;33.38
65997;BME280;52765;52.258;21.052;2023-06-10T13:09:36;100714.97;;;29.24;32.73
65997;BME280;52765;52.258;21.052;2023-06-10T13:12:01;100724.44;;;29.33;32.53
65997;BME280;52765;52.258;21.052;2023-06-10T13:14:27;100711.47;;;29.65;32.69
65997;BME280;52765;52.258;21.052;2023-06-10T13:16:54;100713.09;;;29.71;32.71